createdAt,value
2022-08-27T00:00:51.481Z,21.10
2022-08-27T00:03:18.427Z,21.00
2022-08-27T00:05:45.853Z,21.10
2022-08-27T00:08:13.852Z,21.10
2022-08-27T00:10:45.473Z,21.00
2022-08-27T00:13:12.418Z,21.00
2022-08-27T00:15:41.420Z,21.10
2022-08-27T00:18:08.312Z,21.10
2022-08-27T00:20:39.937Z,21.10
2022-08-27T00:23:09.089Z,21.00
2022-08-27T00:25:35.946Z,21.10
2022-08-27T00:28:03.136Z,21.10
2022-08-27T00:30:32.399Z,21.10
2022-08-27T00:33:01.498Z,21.10
2022-08-27T00:35:28.366Z,21.10
2022-08-27T00:38:00.534Z,21.10
2022-08-27T00:40:27.705Z,21.10
2022-08-27T00:42:54.701Z,21.10
2022-08-27T00:45:23.459Z,21.10
2022-08-27T00:47:57.097Z,21.10
2022-08-27T00:50:39.863Z,21.00
2022-08-27T00:53:22.662Z,21.10
2022-08-27T00:55:56.187Z,21.10
2022-08-27T00:58:26.914Z,21.10
2022-08-27T01:00:55.206Z,21.10
2022-08-27T01:03:22.722Z,21.00
2022-08-27T01:05:50.898Z,21.00
2022-08-27T01:08:21.689Z,21.10
2022-08-27T01:10:51.883Z,21.10
2022-08-27T01:13:23.037Z,21.00
2022-08-27T01:16:13.884Z,21.00
2022-08-27T01:18:44.603Z,21.10
2022-08-27T01:21:26.787Z,21.00
2022-08-27T01:24:07.225Z,21.10
2022-08-27T01:26:34.695Z,21.00
2022-08-27T01:29:01.549Z,21.10
2022-08-27T01:31:29.364Z,21.10
2022-08-27T01:33:57.641Z,21.10
2022-08-27T01:36:24.754Z,21.10
2022-08-27T01:38:51.619Z,21.10
2022-08-27T01:41:20.686Z,21.10
2022-08-27T01:43:48.657Z,21.10
2022-08-27T01:46:15.928Z,21.10
2022-08-27T01:48:42.909Z,21.00
2022-08-27T01:51:09.906Z,21.10
2022-08-27T01:53:36.817Z,21.10
2022-08-27T01:56:04.895Z,21.10
2022-08-27T01:58:33.574Z,21.10
2022-08-27T02:01:08.090Z,21.10
2022-08-27T02:03:37.726Z,21.10
2022-08-27T02:06:10.226Z,21.10
2022-08-27T02:08:40.249Z,21.10
2022-08-27T02:11:10.293Z,21.10
2022-08-27T02:13:39.896Z,21.10
2022-08-27T02:16:07.351Z,21.00
2022-08-27T02:18:37.077Z,21.00
2022-08-27T02:21:04.643Z,21.00
2022-08-27T02:23:31.588Z,21.00
2022-08-27T02:26:00.766Z,21.00
2022-08-27T02:28:27.934Z,21.00
2022-08-27T02:30:57.408Z,21.00
2022-08-27T02:33:24.428Z,21.00
2022-08-27T02:35:51.345Z,21.00
2022-08-27T02:38:20.914Z,21.00
2022-08-27T02:40:47.811Z,21.00
2022-08-27T02:43:25.243Z,21.00
2022-08-27T02:45:52.405Z,21.00
2022-08-27T02:48:19.564Z,21.00
2022-08-27T02:50:49.017Z,21.00
2022-08-27T02:53:15.885Z,21.00
2022-08-27T02:55:45.932Z,21.00
2022-08-27T02:58:18.006Z,21.00
2022-08-27T03:00:45.286Z,21.00
2022-08-27T03:03:12.254Z,21.00
2022-08-27T03:05:39.325Z,21.00
2022-08-27T03:08:08.879Z,21.10
2022-08-27T03:10:35.931Z,21.00
2022-08-27T03:13:02.861Z,21.00
2022-08-27T03:15:29.737Z,21.00
2022-08-27T03:18:15.129Z,21.00
2022-08-27T03:20:43.317Z,21.00
2022-08-27T03:23:14.641Z,21.00
2022-08-27T03:25:45.699Z,21.00
2022-08-27T03:28:23.175Z,21.00
2022-08-27T03:30:53.192Z,21.00
2022-08-27T03:33:23.928Z,20.90
2022-08-27T03:35:52.000Z,21.00
2022-08-27T03:38:20.044Z,20.90
2022-08-27T03:40:47.117Z,20.90
2022-08-27T03:43:15.922Z,20.90
2022-08-27T03:45:48.328Z,20.90
2022-08-27T03:48:31.983Z,20.90
2022-08-27T03:50:59.300Z,20.90
2022-08-27T03:53:26.168Z,20.90
2022-08-27T03:55:53.129Z,20.90
2022-08-27T03:58:20.262Z,20.80
2022-08-27T04:00:47.349Z,20.80
2022-08-27T04:03:14.922Z,20.80
2022-08-27T04:05:45.273Z,20.80
2022-08-27T04:08:13.344Z,20.80
2022-08-27T04:10:43.166Z,20.80
2022-08-27T04:13:12.273Z,20.80
2022-08-27T04:15:47.604Z,20.80
2022-08-27T04:18:17.922Z,20.80
2022-08-27T04:20:48.971Z,20.80
2022-08-27T04:23:16.545Z,20.80
2022-08-27T04:25:44.611Z,20.80
2022-08-27T04:28:12.551Z,20.80
2022-08-27T04:30:45.191Z,20.80
2022-08-27T04:33:13.842Z,20.80
2022-08-27T04:35:41.677Z,20.80
2022-08-27T04:38:10.820Z,20.90
2022-08-27T04:40:57.623Z,20.80
2022-08-27T04:43:28.199Z,20.80
2022-08-27T04:45:55.084Z,20.80
2022-08-27T04:48:22.071Z,20.80
2022-08-27T04:50:51.126Z,20.80
2022-08-27T04:53:20.626Z,20.80
2022-08-27T04:55:51.931Z,20.80
2022-08-27T04:58:22.731Z,20.80
2022-08-27T05:01:01.441Z,20.80
2022-08-27T05:03:28.812Z,20.80
2022-08-27T05:06:05.872Z,20.80
2022-08-27T05:08:34.275Z,20.80
2022-08-27T05:11:06.822Z,20.80
2022-08-27T05:13:35.833Z,20.90
2022-08-27T05:16:07.508Z,20.80
2022-08-27T05:18:44.270Z,20.80
2022-08-27T05:21:23.121Z,20.80
2022-08-27T05:23:51.117Z,20.80
2022-08-27T05:26:18.272Z,20.70
2022-08-27T05:28:45.303Z,20.80
2022-08-27T05:31:14.322Z,20.80
2022-08-27T05:33:43.214Z,20.80
2022-08-27T05:36:26.248Z,20.80
2022-08-27T05:38:54.649Z,20.80
2022-08-27T05:41:33.961Z,20.80
2022-08-27T05:44:30.235Z,20.80
2022-08-27T05:46:57.231Z,20.80
2022-08-27T05:49:24.178Z,20.80
2022-08-27T05:51:51.153Z,20.80
2022-08-27T05:54:21.268Z,20.90
2022-08-27T05:56:54.408Z,20.80
2022-08-27T05:59:45.289Z,20.90
2022-08-27T06:02:12.307Z,20.90
2022-08-27T06:04:39.342Z,20.90
2022-08-27T06:07:09.219Z,20.90
2022-08-27T06:09:36.430Z,20.90
2022-08-27T06:12:03.821Z,20.90
2022-08-27T06:14:30.823Z,20.90
2022-08-27T06:17:01.007Z,20.90
2022-08-27T06:19:34.769Z,21.00
2022-08-27T06:22:09.877Z,21.00
2022-08-27T06:24:42.503Z,20.90
2022-08-27T06:27:20.369Z,21.00
2022-08-27T06:29:47.339Z,21.00
2022-08-27T06:32:14.935Z,21.00
2022-08-27T06:34:42.082Z,21.00
2022-08-27T06:37:11.215Z,21.00
2022-08-27T06:39:39.457Z,21.00
2022-08-27T06:42:12.717Z,21.00
2022-08-27T06:44:40.628Z,21.00
2022-08-27T06:47:07.465Z,21.00
2022-08-27T06:49:34.532Z,21.00
2022-08-27T06:52:01.438Z,21.00
2022-08-27T06:54:28.350Z,21.00
2022-08-27T06:56:58.772Z,20.90
2022-08-27T06:59:26.376Z,20.90
2022-08-27T07:01:55.840Z,20.90
2022-08-27T07:04:31.949Z,20.90
2022-08-27T07:07:03.877Z,21.00
2022-08-27T07:09:34.445Z,20.90
2022-08-27T07:12:06.741Z,21.00
2022-08-27T07:14:37.959Z,21.00
2022-08-27T07:17:11.367Z,21.00
2022-08-27T07:19:43.751Z,21.00
2022-08-27T07:22:13.739Z,21.00
2022-08-27T07:24:41.112Z,21.00
2022-08-27T07:27:10.305Z,21.00
2022-08-27T07:29:39.839Z,21.00
2022-08-27T07:32:06.858Z,20.90
2022-08-27T07:34:33.851Z,21.00
2022-08-27T07:37:00.691Z,21.00
2022-08-27T07:39:32.179Z,21.00
2022-08-27T07:42:20.186Z,21.00
2022-08-27T07:44:47.767Z,21.00
2022-08-27T07:47:14.774Z,21.00
2022-08-27T07:49:44.170Z,21.00
2022-08-27T07:52:11.733Z,21.00
2022-08-27T07:54:38.930Z,21.10
2022-08-27T07:57:05.830Z,21.10
2022-08-27T07:59:33.201Z,21.00
2022-08-27T08:02:02.577Z,21.10
2022-08-27T08:04:29.675Z,21.10
2022-08-27T08:06:56.835Z,21.10
2022-08-27T08:09:26.408Z,21.10
2022-08-27T08:11:56.155Z,21.20
2022-08-27T08:14:25.203Z,21.20
2022-08-27T08:16:55.290Z,21.30
2022-08-27T08:19:22.371Z,21.30
2022-08-27T08:21:57.143Z,21.30
2022-08-27T08:24:29.536Z,21.40
2022-08-27T08:26:56.366Z,21.40
2022-08-27T08:29:23.236Z,21.40
2022-08-27T08:31:52.412Z,21.40
2022-08-27T08:34:19.896Z,21.50
2022-08-27T08:36:51.084Z,21.50
2022-08-27T08:39:24.531Z,21.40
2022-08-27T08:41:56.101Z,21.40
2022-08-27T08:44:37.741Z,21.50
2022-08-27T08:47:12.225Z,21.50
2022-08-27T08:49:53.329Z,21.40
2022-08-27T08:52:31.108Z,21.50
2022-08-27T08:55:30.674Z,21.50
2022-08-27T08:58:32.320Z,21.40
2022-08-27T09:01:02.021Z,21.50
2022-08-27T09:03:36.225Z,21.50
2022-08-27T09:06:07.305Z,21.50
2022-08-27T09:08:43.494Z,21.50
2022-08-27T09:11:49.550Z,21.40
2022-08-27T09:14:37.515Z,21.50
2022-08-27T09:17:10.684Z,21.50
2022-08-27T09:19:39.157Z,21.50
2022-08-27T09:22:35.108Z,21.50
2022-08-27T09:25:07.947Z,21.50
2022-08-27T09:27:38.619Z,21.50
2022-08-27T09:30:10.619Z,21.60
2022-08-27T09:32:39.235Z,21.60
2022-08-27T09:35:11.509Z,21.60
2022-08-27T09:37:54.336Z,21.70
2022-08-27T09:40:38.079Z,21.70
2022-08-27T09:43:16.886Z,21.80
2022-08-27T09:45:59.681Z,22.00
2022-08-27T09:48:34.723Z,22.00
2022-08-27T09:51:16.341Z,22.10
2022-08-27T09:53:58.167Z,22.10
2022-08-27T09:56:30.731Z,22.10
2022-08-27T09:59:05.282Z,22.10
2022-08-27T10:01:35.639Z,22.10
2022-08-27T10:04:15.490Z,22.20
2022-08-27T10:06:49.502Z,22.30
2022-08-27T10:09:28.632Z,22.40
2022-08-27T10:12:14.242Z,22.40
2022-08-27T10:14:52.455Z,22.40
2022-08-27T10:17:47.070Z,22.50
2022-08-27T10:20:18.878Z,22.60
2022-08-27T10:23:21.102Z,22.70
2022-08-27T10:25:56.840Z,22.70
2022-08-27T10:28:44.217Z,22.60
2022-08-27T10:31:31.447Z,22.70
2022-08-27T10:34:21.114Z,22.70
2022-08-27T10:37:17.412Z,22.60
2022-08-27T10:39:52.113Z,22.50
2022-08-27T10:42:19.025Z,22.50
2022-08-27T10:45:11.058Z,22.40
2022-08-27T10:48:06.247Z,22.50
2022-08-27T10:51:06.023Z,22.40
2022-08-27T10:53:47.986Z,22.50
2022-08-27T10:56:28.833Z,22.50
2022-08-27T10:58:59.980Z,22.60
2022-08-27T11:01:26.846Z,22.70
2022-08-27T11:04:07.693Z,22.70
2022-08-27T11:06:39.453Z,22.90
2022-08-27T11:09:20.216Z,22.90
2022-08-27T11:15:13.018Z,22.90
2022-08-27T11:17:45.890Z,22.90
2022-08-27T11:20:25.136Z,22.80
2022-08-27T11:23:04.385Z,22.80
2022-08-27T11:25:54.760Z,22.80
2022-08-27T11:28:37.678Z,22.70
2022-08-27T11:31:21.047Z,22.70
2022-08-27T11:34:15.697Z,22.60
2022-08-27T11:37:10.625Z,22.60
2022-08-27T11:39:49.891Z,22.60
2022-08-27T11:42:42.105Z,22.60
2022-08-27T11:45:21.222Z,22.60
2022-08-27T11:48:00.020Z,22.60
2022-08-27T11:50:28.656Z,22.70
2022-08-27T11:53:00.571Z,22.70
2022-08-27T11:55:31.947Z,22.70
2022-08-27T11:58:29.193Z,22.80
2022-08-27T12:01:04.307Z,22.80
2022-08-27T12:03:35.401Z,22.90
2022-08-27T12:06:26.679Z,22.90
2022-08-27T12:08:54.361Z,23.00
2022-08-27T12:11:39.836Z,22.90
2022-08-27T12:14:45.071Z,23.00
2022-08-27T12:17:42.840Z,23.00
2022-08-27T12:20:26.972Z,23.00
2022-08-27T12:23:36.950Z,23.10
2022-08-27T12:26:25.107Z,23.20
2022-08-27T12:29:20.460Z,23.30
2022-08-27T12:32:01.043Z,23.50
2022-08-27T12:34:33.310Z,23.70
2022-08-27T12:37:07.379Z,23.80
2022-08-27T12:39:42.595Z,23.90
2022-08-27T12:42:14.576Z,24.10
2022-08-27T12:44:43.939Z,24.20
2022-08-27T12:47:16.181Z,24.20
2022-08-27T12:49:52.588Z,24.20
2022-08-27T12:52:43.352Z,24.20
2022-08-27T12:55:18.300Z,24.30
2022-08-27T12:58:14.843Z,24.30
2022-08-27T13:01:05.889Z,24.30
2022-08-27T13:03:37.486Z,24.30
2022-08-27T13:06:22.665Z,24.20
2022-08-27T13:08:59.190Z,24.10
2022-08-27T13:11:47.689Z,24.20
2022-08-27T13:14:20.855Z,24.20
2022-08-27T13:16:52.098Z,24.10
2022-08-27T13:19:30.338Z,24.10
2022-08-27T13:21:58.237Z,24.20
2022-08-27T13:24:35.238Z,24.20
2022-08-27T13:27:04.389Z,24.20
2022-08-27T13:29:34.048Z,24.20
2022-08-27T13:32:02.028Z,24.20
2022-08-27T13:34:35.541Z,24.10
2022-08-27T13:37:23.084Z,24.10
2022-08-27T13:39:56.321Z,24.20
2022-08-27T13:42:25.171Z,24.20
2022-08-27T13:44:56.513Z,24.30
2022-08-27T13:47:27.150Z,24.40
2022-08-27T13:50:09.980Z,24.50
2022-08-27T13:52:59.836Z,24.50
2022-08-27T13:55:28.614Z,24.50
2022-08-27T13:57:58.116Z,24.50
2022-08-27T14:00:32.719Z,24.60
2022-08-27T14:03:03.915Z,24.70
2022-08-27T14:05:36.885Z,24.80
2022-08-27T14:08:17.757Z,25.00
2022-08-27T14:10:48.554Z,25.00
2022-08-27T14:13:22.837Z,24.90
2022-08-27T14:15:56.153Z,24.80
2022-08-27T14:18:42.274Z,24.70
2022-08-27T14:21:12.131Z,24.60
2022-08-27T14:23:41.313Z,24.50
2022-08-27T14:26:10.699Z,24.50
2022-08-27T14:29:03.143Z,24.50
2022-08-27T14:31:38.788Z,24.40
2022-08-27T14:34:09.532Z,24.50
2022-08-27T14:36:41.665Z,24.60
2022-08-27T14:39:10.345Z,24.50
2022-08-27T14:41:38.141Z,24.30
2022-08-27T14:44:11.515Z,24.30
2022-08-27T14:46:43.954Z,24.20
2022-08-27T14:49:16.280Z,24.10
2022-08-27T14:51:45.891Z,24.00
2022-08-27T14:54:13.080Z,23.90
2022-08-27T14:56:40.033Z,23.70
2022-08-27T14:59:07.142Z,23.70
2022-08-27T15:01:38.214Z,23.60
2022-08-27T15:04:07.648Z,23.60
2022-08-27T15:06:34.731Z,23.50
2022-08-27T15:09:07.425Z,23.50
2022-08-27T15:11:37.103Z,23.50
2022-08-27T15:14:16.358Z,23.50
2022-08-27T15:16:45.898Z,23.50
2022-08-27T15:19:15.441Z,23.50
2022-08-27T15:21:46.153Z,23.50
2022-08-27T15:24:18.503Z,23.50
2022-08-27T15:26:46.225Z,23.40
2022-08-27T15:29:15.801Z,23.40
2022-08-27T15:31:43.514Z,23.40
2022-08-27T15:34:13.335Z,23.40
2022-08-27T15:36:40.681Z,23.40
2022-08-27T15:39:08.110Z,23.40
2022-08-27T15:41:41.797Z,23.40
2022-08-27T15:44:24.824Z,23.40
2022-08-27T15:46:51.763Z,23.40
2022-08-27T15:49:20.862Z,23.30
2022-08-27T15:51:47.789Z,23.40
2022-08-27T15:54:14.644Z,23.30
2022-08-27T15:56:41.411Z,23.30
2022-08-27T15:59:08.477Z,23.30
2022-08-27T16:01:38.607Z,23.30
2022-08-27T16:04:06.200Z,23.30
2022-08-27T16:06:34.792Z,23.30
2022-08-27T16:09:02.288Z,23.20
2022-08-27T16:11:32.429Z,23.20
2022-08-27T16:14:03.015Z,23.20
2022-08-27T16:16:32.134Z,23.20
2022-08-27T16:19:05.711Z,23.20
2022-08-27T16:21:34.932Z,23.10
2022-08-27T16:24:02.492Z,23.10
2022-08-27T16:26:29.504Z,23.10
2022-08-27T16:28:58.640Z,23.00
2022-08-27T16:31:25.632Z,23.00
2022-08-27T16:33:52.595Z,22.90
2022-08-27T16:36:19.467Z,22.90
2022-08-27T16:38:46.350Z,22.90
2022-08-27T16:41:14.092Z,22.90
2022-08-27T16:43:43.579Z,22.80
2022-08-27T16:46:12.681Z,22.90
2022-08-27T16:49:00.899Z,22.80
2022-08-27T16:51:34.917Z,22.80
2022-08-27T16:54:06.922Z,22.70
2022-08-27T16:56:37.860Z,22.70
2022-08-27T16:59:05.154Z,22.70
2022-08-27T17:01:33.279Z,22.60
2022-08-27T17:04:17.258Z,22.60
2022-08-27T17:06:51.624Z,22.50
2022-08-27T17:09:23.796Z,22.50
2022-08-27T17:11:57.254Z,22.40
2022-08-27T17:14:26.865Z,22.30
2022-08-27T17:16:55.914Z,22.20
2022-08-27T17:19:26.150Z,22.20
2022-08-27T17:21:55.922Z,22.20
2022-08-27T17:24:22.841Z,22.20
2022-08-27T17:26:51.831Z,22.10
2022-08-27T17:29:22.830Z,22.10
2022-08-27T17:31:49.812Z,22.10
2022-08-27T17:34:21.547Z,22.10
2022-08-27T17:36:48.728Z,22.10
2022-08-27T17:39:19.336Z,22.10
2022-08-27T17:41:49.166Z,22.10
2022-08-27T17:44:15.977Z,22.10
2022-08-27T17:46:42.890Z,22.10
2022-08-27T17:49:12.253Z,22.00
2022-08-27T17:51:39.150Z,22.00
2022-08-27T17:54:06.583Z,22.00
2022-08-27T17:56:34.351Z,22.00
2022-08-27T17:59:01.203Z,22.10
2022-08-27T18:01:31.716Z,22.00
2022-08-27T18:03:59.777Z,22.00
2022-08-27T18:06:28.796Z,22.00
2022-08-27T18:08:55.865Z,21.90
2022-08-27T18:11:23.117Z,21.90
2022-08-27T18:13:55.787Z,21.90
2022-08-27T18:16:23.026Z,21.90
2022-08-27T18:18:54.669Z,21.90
2022-08-27T18:21:25.391Z,21.90
2022-08-27T18:23:54.027Z,21.90
2022-08-27T18:26:25.894Z,21.90
2022-08-27T18:28:55.152Z,22.00
2022-08-27T18:31:27.075Z,21.90
2022-08-27T18:33:57.234Z,21.90
2022-08-27T18:36:25.479Z,21.90
2022-08-27T18:38:52.496Z,21.90
2022-08-27T18:41:19.929Z,21.80
2022-08-27T18:43:47.540Z,21.80
2022-08-27T18:46:18.032Z,21.80
2022-08-27T18:48:45.172Z,21.70
2022-08-27T18:51:19.761Z,21.70
2022-08-27T18:53:47.959Z,21.70
2022-08-27T18:56:17.080Z,21.70
2022-08-27T18:58:45.041Z,21.70
2022-08-27T19:01:16.698Z,21.70
2022-08-27T19:03:49.077Z,21.70
2022-08-27T19:06:21.649Z,21.70
2022-08-27T19:08:50.131Z,21.60
2022-08-27T19:11:17.064Z,21.60
2022-08-27T19:13:50.541Z,21.60
2022-08-27T19:16:24.260Z,21.60
2022-08-27T19:18:51.674Z,21.60
2022-08-27T19:21:18.578Z,21.60
2022-08-27T19:23:51.046Z,21.60
2022-08-27T19:26:23.495Z,21.60
2022-08-27T19:28:50.439Z,21.50
2022-08-27T19:31:17.466Z,21.50
2022-08-27T19:33:46.506Z,21.50
2022-08-27T19:36:16.889Z,21.50
2022-08-27T19:38:49.145Z,21.50
2022-08-27T19:41:19.037Z,21.50
2022-08-27T19:43:46.205Z,21.50
2022-08-27T19:46:16.481Z,21.40
2022-08-27T19:48:45.999Z,21.50
2022-08-27T19:51:14.023Z,21.50
2022-08-27T19:53:42.195Z,21.50
2022-08-27T19:56:13.881Z,21.50
2022-08-27T19:58:42.383Z,21.50
2022-08-27T20:01:12.614Z,21.40
2022-08-27T20:03:39.725Z,21.40
2022-08-27T20:06:09.038Z,21.40
2022-08-27T20:08:36.116Z,21.40
2022-08-27T20:11:03.040Z,21.40
2022-08-27T20:13:33.047Z,21.30
2022-08-27T20:16:01.058Z,21.30
2022-08-27T20:18:31.253Z,21.30
2022-08-27T20:20:58.172Z,21.30
2022-08-27T20:23:27.479Z,21.30
2022-08-27T20:26:00.916Z,21.30
2022-08-27T20:28:39.651Z,21.30
2022-08-27T20:31:07.663Z,21.30
2022-08-27T20:33:34.529Z,21.30
2022-08-27T20:36:02.593Z,21.30
2022-08-27T20:38:30.074Z,21.20
2022-08-27T20:40:57.198Z,21.30
2022-08-27T20:43:26.687Z,21.30
2022-08-27T20:45:54.195Z,21.30
2022-08-27T20:48:21.088Z,21.30
2022-08-27T20:50:50.285Z,21.30
2022-08-27T20:53:17.252Z,21.30
2022-08-27T20:55:44.325Z,21.20
2022-08-27T20:58:32.118Z,21.20
2022-08-27T21:01:03.615Z,21.20
2022-08-27T21:03:32.676Z,21.20
2022-08-27T21:05:59.527Z,21.20
2022-08-27T21:08:29.252Z,21.20
2022-08-27T21:10:58.990Z,21.20
2022-08-27T21:13:28.507Z,21.20
2022-08-27T21:15:58.232Z,21.20
2022-08-27T21:18:29.313Z,21.20
2022-08-27T21:20:57.904Z,21.20
2022-08-27T21:23:27.835Z,21.20
2022-08-27T21:25:59.546Z,21.20
2022-08-27T21:28:26.455Z,21.10
2022-08-27T21:30:55.664Z,21.10
2022-08-27T21:33:22.646Z,21.10
2022-08-27T21:35:52.086Z,21.10
2022-08-27T21:38:21.447Z,21.10
2022-08-27T21:40:48.306Z,21.10
2022-08-27T21:43:15.198Z,21.10
2022-08-27T21:45:43.026Z,21.20
2022-08-27T21:48:10.011Z,21.10
2022-08-27T21:50:37.401Z,21.10
2022-08-27T21:53:08.852Z,21.10
2022-08-27T21:55:35.724Z,21.10
2022-08-27T21:58:02.606Z,21.10
2022-08-27T22:00:29.537Z,21.00
2022-08-27T22:02:57.039Z,21.00
2022-08-27T22:05:24.561Z,21.00
2022-08-27T22:07:51.513Z,21.00
2022-08-27T22:10:18.484Z,21.00
2022-08-27T22:12:45.325Z,20.90
2022-08-27T22:15:12.615Z,21.00
2022-08-27T22:17:39.617Z,21.00
2022-08-27T22:20:08.818Z,20.90
2022-08-27T22:22:35.713Z,20.90
2022-08-27T22:25:02.603Z,20.90
2022-08-27T22:27:29.565Z,20.90
2022-08-27T22:29:58.730Z,20.90
2022-08-27T22:32:27.792Z,20.90
2022-08-27T22:34:54.582Z,20.90
2022-08-27T22:37:26.371Z,20.80
2022-08-27T22:39:53.304Z,20.80
2022-08-27T22:42:23.954Z,20.80
2022-08-27T22:44:53.096Z,20.80
2022-08-27T22:47:22.531Z,20.80
2022-08-27T22:49:52.898Z,20.80
2022-08-27T22:52:23.236Z,20.80
2022-08-27T22:54:55.126Z,20.80
2022-08-27T22:57:24.763Z,20.80
2022-08-27T22:59:54.044Z,20.80
2022-08-27T23:02:21.254Z,20.70
2022-08-27T23:04:57.593Z,20.70
2022-08-27T23:07:24.902Z,20.70
2022-08-27T23:09:51.852Z,20.70
2022-08-27T23:12:20.909Z,20.70
2022-08-27T23:14:47.740Z,20.70
2022-08-27T23:17:17.029Z,20.70
2022-08-27T23:19:46.974Z,20.60
2022-08-27T23:22:14.847Z,20.60
2022-08-27T23:25:03.497Z,20.60
2022-08-27T23:27:30.700Z,20.50
2022-08-27T23:30:01.979Z,20.50
2022-08-27T23:32:31.654Z,20.50
2022-08-27T23:34:58.854Z,20.40
2022-08-27T23:37:27.941Z,20.40
2022-08-27T23:39:55.116Z,20.40
2022-08-27T23:42:22.154Z,20.40
2022-08-27T23:44:49.351Z,20.40
2022-08-27T23:47:17.626Z,20.30
2022-08-27T23:49:47.517Z,20.40
2022-08-27T23:52:14.509Z,20.40
2022-08-27T23:54:41.628Z,20.40
2022-08-27T23:57:08.587Z,20.40
2022-08-27T23:59:35.615Z,20.40
